sensor_id;sensor_type;location;lat;lon;timestamp;pressure;altitude;pressure_sealevel;temperature;humidity
12471;BME280;36499;46.484;13.832;2022-12-10T00:01:50;91541.91;;;4.05;85.33
12471;BME280;36499;46.484;13.832;2022-12-10T00:04:19;91529.50;;;3.95;86.29
12471;BME280;36499;46.484;13.832;2022-12-10T00:06:49;91545.28;;;4.05;85.92
12471;BME280;36499;46.484;13.832;2022-12-10T00:09:19;91538.97;;;4.01;85.97
12471;BME280;36499;46.484;13.832;2022-12-10T00:11:47;91531.75;;;4.10;85.10
12471;BME280;36499;46.484;13.832;2022-12-10T00:14:14;91540.69;;;4.07;85.51
12471;BME280;36499;46.484;13.832;2022-12-10T00:16:41;91552.38;;;4.10;84.61
12471;BME280;36499;46.484;13.832;2022-12-10T00:19:09;91544.72;;;4.03;85.18
12471;BME280;36499;46.484;13.832;2022-12-10T00:21:38;91539.50;;;4.10;85.09
12471;BME280;36499;46.484;13.832;2022-12-10T00:24:09;91546.06;;;4.06;85.85
12471;BME280;36499;46.484;13.832;2022-12-10T00:26:38;91548.81;;;4.11;85.10
12471;BME280;36499;46.484;13.832;2022-12-10T00:29:09;91545.63;;;4.09;84.82
12471;BME280;36499;46.484;13.832;2022-12-10T00:31:38;91553.34;;;3.91;85.27
12471;BME280;36499;46.484;13.832;2022-12-10T00:34:08;91547.94;;;3.92;85.12
12471;BME280;36499;46.484;13.832;2022-12-10T00:36:39;91543.75;;;3.98;85.81
12471;BME280;36499;46.484;13.832;2022-12-10T00:39:11;91549.88;;;4.03;85.33
12471;BME280;36499;46.484;13.832;2022-12-10T00:41:39;91544.06;;;4.08;85.60
12471;BME280;36499;46.484;13.832;2022-12-10T00:44:07;91544.28;;;4.06;85.32
12471;BME280;36499;46.484;13.832;2022-12-10T00:46:37;91551.59;;;4.09;85.39
12471;BME280;36499;46.484;13.832;2022-12-10T00:49:05;91552.16;;;4.11;84.01
12471;BME280;36499;46.484;13.832;2022-12-10T00:51:33;91552.94;;;4.12;84.53
12471;BME280;36499;46.484;13.832;2022-12-10T00:54:01;91552.94;;;4.12;84.29
12471;BME280;36499;46.484;13.832;2022-12-10T00:56:31;91557.75;;;4.08;85.73
12471;BME280;36499;46.484;13.832;2022-12-10T00:59:00;91555.78;;;4.04;85.17
12471;BME280;36499;46.484;13.832;2022-12-10T01:01:29;91569.84;;;4.08;85.36
12471;BME280;36499;46.484;13.832;2022-12-10T01:04:00;91566.47;;;4.07;84.79
12471;BME280;36499;46.484;13.832;2022-12-10T01:06:30;91570.50;;;4.03;85.58
12471;BME280;36499;46.484;13.832;2022-12-10T01:09:00;91569.16;;;3.94;85.36
12471;BME280;36499;46.484;13.832;2022-12-10T01:11:33;91572.66;;;4.06;84.65
12471;BME280;36499;46.484;13.832;2022-12-10T01:14:01;91574.69;;;3.98;85.83
12471;BME280;36499;46.484;13.832;2022-12-10T01:16:28;91566.78;;;3.93;86.04
12471;BME280;36499;46.484;13.832;2022-12-10T01:18:58;91553.28;;;3.97;85.07
12471;BME280;36499;46.484;13.832;2022-12-10T01:21:28;91556.22;;;4.01;85.14
12471;BME280;36499;46.484;13.832;2022-12-10T01:23:58;91546.91;;;4.00;85.74
12471;BME280;36499;46.484;13.832;2022-12-10T01:26:28;91555.03;;;4.03;85.96
12471;BME280;36499;46.484;13.832;2022-12-10T01:28:58;91550.91;;;3.96;85.92
12471;BME280;36499;46.484;13.832;2022-12-10T01:31:28;91556.28;;;3.94;85.22
12471;BME280;36499;46.484;13.832;2022-12-10T01:33:57;91551.69;;;3.96;86.01
12471;BME280;36499;46.484;13.832;2022-12-10T01:36:27;91557.50;;;3.92;85.62
12471;BME280;36499;46.484;13.832;2022-12-10T01:38:54;91564.22;;;3.93;85.77
12471;BME280;36499;46.484;13.832;2022-12-10T01:41:24;91572.31;;;3.96;86.64
12471;BME280;36499;46.484;13.832;2022-12-10T01:43:57;91574.69;;;3.98;85.33
12471;BME280;36499;46.484;13.832;2022-12-10T01:46:27;91574.50;;;3.99;86.21
12471;BME280;36499;46.484;13.832;2022-12-10T01:48:55;91567.53;;;4.00;85.35
12471;BME280;36499;46.484;13.832;2022-12-10T01:51:26;91565.16;;;3.98;86.09
12471;BME280;36499;46.484;13.832;2022-12-10T01:53:55;91570.88;;;4.00;85.37
12471;BME280;36499;46.484;13.832;2022-12-10T01:56:23;91571.69;;;4.01;85.87
12471;BME280;36499;46.484;13.832;2022-12-10T01:58:54;91560.63;;;3.94;86.27
12471;BME280;36499;46.484;13.832;2022-12-10T02:01:32;91564.00;;;3.94;86.57
12471;BME280;36499;46.484;13.832;2022-12-10T02:04:23;91566.53;;;4.01;86.82
12471;BME280;36499;46.484;13.832;2022-12-10T02:06:58;91567.50;;;4.06;86.50
12471;BME280;36499;46.484;13.832;2022-12-10T02:09:35;91564.38;;;3.98;86.12
12471;BME280;36499;46.484;13.832;2022-12-10T02:12:11;91573.59;;;3.87;86.60
12471;BME280;36499;46.484;13.832;2022-12-10T02:14:56;91566.31;;;4.02;85.84
12471;BME280;36499;46.484;13.832;2022-12-10T02:17:31;91555.22;;;4.02;86.01
12471;BME280;36499;46.484;13.832;2022-12-10T02:20:07;91565.34;;;4.03;85.34
12471;BME280;36499;46.484;13.832;2022-12-10T02:22:39;91558.38;;;4.04;85.95
12471;BME280;36499;46.484;13.832;2022-12-10T02:25:12;91553.22;;;4.04;86.23
12471;BME280;36499;46.484;13.832;2022-12-10T02:27:48;91550.84;;;4.02;85.76
12471;BME280;36499;46.484;13.832;2022-12-10T02:30:19;91556.00;;;4.02;86.03
12471;BME280;36499;46.484;13.832;2022-12-10T02:32:49;91537.19;;;4.02;85.93
12471;BME280;36499;46.484;13.832;2022-12-10T02:35:23;91538.53;;;4.04;85.92
12471;BME280;36499;46.484;13.832;2022-12-10T02:37:56;91540.13;;;4.05;85.83
12471;BME280;36499;46.484;13.832;2022-12-10T02:40:30;91538.34;;;4.06;86.02
12471;BME280;36499;46.484;13.832;2022-12-10T02:42:58;91533.97;;;4.06;86.21
12471;BME280;36499;46.484;13.832;2022-12-10T02:45:29;91542.06;;;4.10;85.82
12471;BME280;36499;46.484;13.832;2022-12-10T02:48:00;91533.38;;;4.04;85.57
12471;BME280;36499;46.484;13.832;2022-12-10T02:50:28;91529.44;;;4.02;86.15
12471;BME280;36499;46.484;13.832;2022-12-10T02:52:56;91541.91;;;4.05;86.63
12471;BME280;36499;46.484;13.832;2022-12-10T02:55:23;91537.53;;;4.05;86.46
12471;BME280;36499;46.484;13.832;2022-12-10T02:58:06;91523.84;;;4.05;85.83
12471;BME280;36499;46.484;13.832;2022-12-10T03:00:50;91517.13;;;4.04;85.67
12471;BME280;36499;46.484;13.832;2022-12-10T03:03:32;91537.63;;;3.92;86.18
12471;BME280;36499;46.484;13.832;2022-12-10T03:06:09;91541.34;;;4.03;85.93
12471;BME280;36499;46.484;13.832;2022-12-10T03:08:48;91529.88;;;3.99;86.69
12471;BME280;36499;46.484;13.832;2022-12-10T03:11:19;91525.72;;;3.98;86.06
12471;BME280;36499;46.484;13.832;2022-12-10T03:13:54;91527.03;;;4.07;85.59
12471;BME280;36499;46.484;13.832;2022-12-10T03:16:31;91526.78;;;4.08;86.09
12471;BME280;36499;46.484;13.832;2022-12-10T03:19:06;91512.72;;;4.11;85.66
12471;BME280;36499;46.484;13.832;2022-12-10T03:21:37;91518.28;;;4.08;86.37
12471;BME280;36499;46.484;13.832;2022-12-10T03:24:07;91526.00;;;4.08;85.43
12471;BME280;36499;46.484;13.832;2022-12-10T03:26:36;91526.66;;;4.03;84.74
12471;BME280;36499;46.484;13.832;2022-12-10T03:29:10;91513.53;;;4.05;85.47
12471;BME280;36499;46.484;13.832;2022-12-10T03:31:44;91517.47;;;4.07;85.78
12471;BME280;36499;46.484;13.832;2022-12-10T03:34:14;91532.94;;;4.07;85.77
12471;BME280;36499;46.484;13.832;2022-12-10T03:36:42;91533.59;;;4.03;85.78
12471;BME280;36499;46.484;13.832;2022-12-10T03:39:12;91531.13;;;3.90;86.96
12471;BME280;36499;46.484;13.832;2022-12-10T03:41:40;91535.50;;;3.89;87.03
12471;BME280;36499;46.484;13.832;2022-12-10T03:44:07;91545.06;;;3.82;87.03
12471;BME280;36499;46.484;13.832;2022-12-10T03:46:35;91550.94;;;3.89;87.25
12471;BME280;36499;46.484;13.832;2022-12-10T03:49:04;91547.31;;;3.97;86.80
12471;BME280;36499;46.484;13.832;2022-12-10T03:51:32;91546.06;;;4.06;86.61
12471;BME280;36499;46.484;13.832;2022-12-10T03:54:03;91551.78;;;4.08;86.42
12471;BME280;36499;46.484;13.832;2022-12-10T03:56:33;91553.97;;;4.11;86.25
12471;BME280;36499;46.484;13.832;2022-12-10T03:59:00;91556.75;;;4.09;85.94
12471;BME280;36499;46.484;13.832;2022-12-10T04:01:27;91557.16;;;4.06;86.20
12471;BME280;36499;46.484;13.832;2022-12-10T04:03:54;91557.38;;;4.05;86.75
12471;BME280;36499;46.484;13.832;2022-12-10T04:06:23;91555.94;;;4.09;86.84
12471;BME280;36499;46.484;13.832;2022-12-10T04:08:52;91556.53;;;4.11;86.37
12471;BME280;36499;46.484;13.832;2022-12-10T04:11:19;91555.75;;;4.10;86.67
12471;BME280;36499;46.484;13.832;2022-12-10T04:13:46;91559.69;;;4.13;86.33
12471;BME280;36499;46.484;13.832;2022-12-10T04:16:32;91559.53;;;4.08;87.05
12471;BME280;36499;46.484;13.832;2022-12-10T04:19:03;91565.97;;;3.99;86.96
12471;BME280;36499;46.484;13.832;2022-12-10T04:21:34;91560.75;;;4.05;87.18
12471;BME280;36499;46.484;13.832;2022-12-10T04:24:22;91562.69;;;4.10;87.18
12471;BME280;36499;46.484;13.832;2022-12-10T04:27:20;91559.88;;;4.11;86.35
12471;BME280;36499;46.484;13.832;2022-12-10T04:29:49;91554.06;;;3.98;87.08
12471;BME280;36499;46.484;13.832;2022-12-10T04:32:17;91555.53;;;4.12;87.04
12471;BME280;36499;46.484;13.832;2022-12-10T04:34:44;91558.25;;;4.17;86.15
12471;BME280;36499;46.484;13.832;2022-12-10T04:37:13;91560.25;;;4.15;86.08
12471;BME280;36499;46.484;13.832;2022-12-10T04:39:41;91557.91;;;4.13;86.36
12471;BME280;36499;46.484;13.832;2022-12-10T04:42:09;91558.66;;;3.96;87.09
12471;BME280;36499;46.484;13.832;2022-12-10T04:44:37;91559.78;;;4.00;87.48
12471;BME280;36499;46.484;13.832;2022-12-10T04:47:07;91553.75;;;4.12;86.92
12471;BME280;36499;46.484;13.832;2022-12-10T04:49:36;91546.16;;;4.17;86.45
12471;BME280;36499;46.484;13.832;2022-12-10T04:52:04;91556.69;;;4.16;86.81
12471;BME280;36499;46.484;13.832;2022-12-10T04:54:34;91556.25;;;4.19;86.23
12471;BME280;36499;46.484;13.832;2022-12-10T04:57:02;91556.06;;;4.20;85.80
12471;BME280;36499;46.484;13.832;2022-12-10T04:59:34;91554.09;;;4.16;86.99
12471;BME280;36499;46.484;13.832;2022-12-10T05:02:04;91555.06;;;4.21;86.80
12471;BME280;36499;46.484;13.832;2022-12-10T05:04:31;91548.69;;;4.24;86.67
12471;BME280;36499;46.484;13.832;2022-12-10T05:06:59;91542.88;;;4.28;86.21
12471;BME280;36499;46.484;13.832;2022-12-10T05:09:26;91541.09;;;4.29;85.90
12471;BME280;36499;46.484;13.832;2022-12-10T05:11:55;91549.66;;;4.23;85.63
12471;BME280;36499;46.484;13.832;2022-12-10T05:14:22;91547.94;;;4.17;86.52
12471;BME280;36499;46.484;13.832;2022-12-10T05:16:50;91542.34;;;4.02;86.51
12471;BME280;36499;46.484;13.832;2022-12-10T05:19:19;91535.38;;;4.02;87.77
12471;BME280;36499;46.484;13.832;2022-12-10T05:21:49;91541.06;;;4.11;86.48
12471;BME280;36499;46.484;13.832;2022-12-10T05:24:34;91544.22;;;4.13;85.77
12471;BME280;36499;46.484;13.832;2022-12-10T05:27:03;91540.56;;;4.20;86.01
12471;BME280;36499;46.484;13.832;2022-12-10T05:29:32;91537.63;;;4.17;86.55
12471;BME280;36499;46.484;13.832;2022-12-10T05:31:59;91545.75;;;3.96;87.04
12471;BME280;36499;46.484;13.832;2022-12-10T05:34:26;91541.06;;;4.11;87.14
12471;BME280;36499;46.484;13.832;2022-12-10T05:36:54;91546.38;;;4.16;86.84
12471;BME280;36499;46.484;13.832;2022-12-10T05:39:26;91543.91;;;4.03;86.61
12471;BME280;36499;46.484;13.832;2022-12-10T05:41:54;91541.91;;;4.05;87.53
12471;BME280;36499;46.484;13.832;2022-12-10T05:44:23;91538.16;;;4.01;86.71
12471;BME280;36499;46.484;13.832;2022-12-10T05:46:52;91548.13;;;3.97;87.02
12471;BME280;36499;46.484;13.832;2022-12-10T05:49:21;91540.44;;;3.91;88.05
12471;BME280;36499;46.484;13.832;2022-12-10T05:51:49;91537.34;;;4.07;87.54
12471;BME280;36499;46.484;13.832;2022-12-10T05:54:16;91536.91;;;4.10;86.96
12471;BME280;36499;46.484;13.832;2022-12-10T05:56:43;91542.44;;;4.13;86.75
12471;BME280;36499;46.484;13.832;2022-12-10T05:59:10;91528.66;;;4.01;87.98
12471;BME280;36499;46.484;13.832;2022-12-10T06:01:39;91527.75;;;4.14;86.78
12471;BME280;36499;46.484;13.832;2022-12-10T06:04:06;91523.16;;;4.16;87.40
12471;BME280;36499;46.484;13.832;2022-12-10T06:06:37;91530.53;;;4.12;87.25
12471;BME280;36499;46.484;13.832;2022-12-10T06:09:07;91525.00;;;4.09;87.50
12471;BME280;36499;46.484;13.832;2022-12-10T06:11:37;91529.75;;;4.12;86.91
12471;BME280;36499;46.484;13.832;2022-12-10T06:14:04;91533.69;;;4.14;87.48
12471;BME280;36499;46.484;13.832;2022-12-10T06:16:31;91530.16;;;4.09;86.52
12471;BME280;36499;46.484;13.832;2022-12-10T06:19:00;91530.59;;;4.06;87.56
12471;BME280;36499;46.484;13.832;2022-12-10T06:21:27;91530.97;;;4.09;86.58
12471;BME280;36499;46.484;13.832;2022-12-10T06:23:54;91539.50;;;4.10;86.29
12471;BME280;36499;46.484;13.832;2022-12-10T06:26:25;91543.25;;;4.07;86.68
12471;BME280;36499;46.484;13.832;2022-12-10T06:28:55;91548.75;;;3.93;88.13
12471;BME280;36499;46.484;13.832;2022-12-10T06:31:24;91545.06;;;3.82;89.15
12471;BME280;36499;46.484;13.832;2022-12-10T06:33:51;91550.47;;;3.74;89.15
12471;BME280;36499;46.484;13.832;2022-12-10T06:36:21;91542.53;;;3.75;89.26
12471;BME280;36499;46.484;13.832;2022-12-10T06:38:48;91544.94;;;3.70;89.90
12471;BME280;36499;46.484;13.832;2022-12-10T06:41:18;91544.59;;;3.92;88.90
12471;BME280;36499;46.484;13.832;2022-12-10T06:43:46;91536.13;;;4.09;87.88
12471;BME280;36499;46.484;13.832;2022-12-10T06:46:16;91531.69;;;4.16;87.35
12471;BME280;36499;46.484;13.832;2022-12-10T06:48:44;91537.28;;;4.13;86.97
12471;BME280;36499;46.484;13.832;2022-12-10T06:51:12;91531.88;;;4.15;86.78
12471;BME280;36499;46.484;13.832;2022-12-10T06:53:42;91529.91;;;4.17;87.26
12471;BME280;36499;46.484;13.832;2022-12-10T06:56:18;91531.31;;;4.13;87.54
12471;BME280;36499;46.484;13.832;2022-12-10T06:58:48;91534.59;;;4.02;88.28
12471;BME280;36499;46.484;13.832;2022-12-10T07:01:17;91537.28;;;4.13;86.57
12471;BME280;36499;46.484;13.832;2022-12-10T07:03:48;91537.09;;;4.08;86.72
12471;BME280;36499;46.484;13.832;2022-12-10T07:06:15;91532.22;;;4.00;87.02
12471;BME280;36499;46.484;13.832;2022-12-10T07:08:43;91527.56;;;3.91;87.87
12471;BME280;36499;46.484;13.832;2022-12-10T07:11:14;91535.13;;;3.85;89.20
12471;BME280;36499;46.484;13.832;2022-12-10T07:13:41;91545.63;;;4.09;87.86
12471;BME280;36499;46.484;13.832;2022-12-10T07:16:14;91534.41;;;4.03;87.04
12471;BME280;36499;46.484;13.832;2022-12-10T07:18:41;91535.91;;;4.11;86.86
12471;BME280;36499;46.484;13.832;2022-12-10T07:21:16;91540.31;;;4.04;87.47
12471;BME280;36499;46.484;13.832;2022-12-10T07:23:46;91545.84;;;4.07;87.87
12471;BME280;36499;46.484;13.832;2022-12-10T07:26:13;91543.75;;;3.98;87.42
12471;BME280;36499;46.484;13.832;2022-12-10T07:28:40;91535.38;;;4.02;87.85
12471;BME280;36499;46.484;13.832;2022-12-10T07:31:09;91536.91;;;4.10;87.74
12471;BME280;36499;46.484;13.832;2022-12-10T07:33:37;91536.59;;;4.00;87.44
12471;BME280;36499;46.484;13.832;2022-12-10T07:36:06;91542.34;;;4.02;87.39
12471;BME280;36499;46.484;13.832;2022-12-10T07:38:38;91546.63;;;4.08;87.89
12471;BME280;36499;46.484;13.832;2022-12-10T07:41:11;91549.63;;;4.05;88.08
12471;BME280;36499;46.484;13.832;2022-12-10T07:43:41;91546.06;;;4.06;87.41
12471;BME280;36499;46.484;13.832;2022-12-10T07:46:14;91544.91;;;4.02;88.28
12471;BME280;36499;46.484;13.832;2022-12-10T07:48:45;91551.00;;;4.07;87.32
12471;BME280;36499;46.484;13.832;2022-12-10T07:51:16;91544.78;;;4.15;87.54
12471;BME280;36499;46.484;13.832;2022-12-10T07:53:46;91550.69;;;4.22;87.93
12471;BME280;36499;46.484;13.832;2022-12-10T07:56:15;91550.97;;;4.32;86.34
12471;BME280;36499;46.484;13.832;2022-12-10T07:58:44;91553.09;;;4.17;86.88
12471;BME280;36499;46.484;13.832;2022-12-10T08:01:14;91547.09;;;4.23;87.35
12471;BME280;36499;46.484;13.832;2022-12-10T08:03:42;91550.78;;;4.09;87.71
12471;BME280;36499;46.484;13.832;2022-12-10T08:06:12;91554.94;;;3.85;88.35
12471;BME280;36499;46.484;13.832;2022-12-10T08:08:41;91552.59;;;3.83;88.54
12471;BME280;36499;46.484;13.832;2022-12-10T08:11:10;91551.91;;;3.95;88.61
12471;BME280;36499;46.484;13.832;2022-12-10T08:13:39;91560.63;;;3.94;88.48
12471;BME280;36499;46.484;13.832;2022-12-10T08:16:10;91558.53;;;4.09;88.69
12471;BME280;36499;46.484;13.832;2022-12-10T08:18:38;91565.22;;;3.92;88.38
12471;BME280;36499;46.484;13.832;2022-12-10T08:21:08;91564.44;;;3.91;88.28
12471;BME280;36499;46.484;13.832;2022-12-10T08:23:36;91578.69;;;3.94;89.08
12471;BME280;36499;46.484;13.832;2022-12-10T08:26:04;91563.22;;;3.94;88.71
12471;BME280;36499;46.484;13.832;2022-12-10T08:28:31;91565.78;;;3.94;88.73
12471;BME280;36499;46.484;13.832;2022-12-10T08:31:00;91570.09;;;4.00;87.89
12471;BME280;36499;46.484;13.832;2022-12-10T08:33:27;91565.09;;;4.05;88.05
12471;BME280;36499;46.484;13.832;2022-12-10T08:35:58;91567.13;;;4.03;89.09
12471;BME280;36499;46.484;13.832;2022-12-10T08:38:26;91576.00;;;4.07;88.77
12471;BME280;36499;46.484;13.832;2022-12-10T08:40:53;91584.00;;;3.99;88.12
12471;BME280;36499;46.484;13.832;2022-12-10T08:43:22;91580.00;;;4.03;89.39
12471;BME280;36499;46.484;13.832;2022-12-10T08:45:52;91580.88;;;4.15;88.01
12471;BME280;36499;46.484;13.832;2022-12-10T08:48:23;91586.03;;;4.15;88.53
12471;BME280;36499;46.484;13.832;2022-12-10T08:50:51;91589.66;;;4.07;88.24
12471;BME280;36499;46.484;13.832;2022-12-10T08:53:18;91597.34;;;3.89;89.36
12471;BME280;36499;46.484;13.832;2022-12-10T08:55:45;91595.72;;;4.19;88.24
12471;BME280;36499;46.484;13.832;2022-12-10T08:58:16;91594.84;;;4.32;88.00
12471;BME280;36499;46.484;13.832;2022-12-10T09:00:44;91589.25;;;4.35;87.58
12471;BME280;36499;46.484;13.832;2022-12-10T09:03:11;91599.19;;;4.31;87.34
12471;BME280;36499;46.484;13.832;2022-12-10T09:05:40;91608.03;;;4.42;87.30
12471;BME280;36499;46.484;13.832;2022-12-10T09:08:08;91608.56;;;4.51;86.54
12471;BME280;36499;46.484;13.832;2022-12-10T09:10:36;91597.16;;;4.58;85.95
12471;BME280;36499;46.484;13.832;2022-12-10T09:13:04;91601.84;;;4.68;85.48
12471;BME280;36499;46.484;13.832;2022-12-10T09:15:31;91599.84;;;4.70;85.34
12471;BME280;36499;46.484;13.832;2022-12-10T09:17:59;91608.72;;;4.74;85.59
12471;BME280;36499;46.484;13.832;2022-12-10T09:20:26;91604.91;;;4.76;85.25
12471;BME280;36499;46.484;13.832;2022-12-10T09:22:54;91603.38;;;4.75;84.79
12471;BME280;36499;46.484;13.832;2022-12-10T09:25:22;91607.66;;;4.81;84.61
12471;BME280;36499;46.484;13.832;2022-12-10T09:27:49;91603.41;;;4.87;84.35
12471;BME280;36499;46.484;13.832;2022-12-10T09:30:16;91595.25;;;4.90;84.71
12471;BME280;36499;46.484;13.832;2022-12-10T09:32:44;91589.66;;;4.93;85.19
12471;BME280;36499;46.484;13.832;2022-12-10T09:35:11;91585.72;;;4.91;83.88
12471;BME280;36499;46.484;13.832;2022-12-10T09:37:38;91578.53;;;4.93;83.54
12471;BME280;36499;46.484;13.832;2022-12-10T09:40:09;91576.53;;;4.95;84.11
12471;BME280;36499;46.484;13.832;2022-12-10T09:42:49;91582.84;;;4.99;83.84
12471;BME280;36499;46.484;13.832;2022-12-10T09:45:26;91580.25;;;4.99;84.71
12471;BME280;36499;46.484;13.832;2022-12-10T09:48:04;91562.41;;;4.97;84.24
12471;BME280;36499;46.484;13.832;2022-12-10T09:50:38;91562.53;;;5.02;84.38
12471;BME280;36499;46.484;13.832;2022-12-10T09:53:18;91559.31;;;5.07;84.40
12471;BME280;36499;46.484;13.832;2022-12-10T09:55:58;91554.50;;;5.10;83.82
12471;BME280;36499;46.484;13.832;2022-12-10T09:58:29;91553.00;;;5.03;84.55
12471;BME280;36499;46.484;13.832;2022-12-10T10:01:03;91551.78;;;5.05;83.84
12471;BME280;36499;46.484;13.832;2022-12-10T10:03:37;91546.03;;;5.03;83.68
12471;BME280;36499;46.484;13.832;2022-12-10T10:06:12;91542.66;;;5.03;84.19
12471;BME280;36499;46.484;13.832;2022-12-10T10:08:44;91539.66;;;5.06;83.38
12471;BME280;36499;46.484;13.832;2022-12-10T10:11:19;91543.38;;;5.10;84.11
12471;BME280;36499;46.484;13.832;2022-12-10T10:13:54;91540.56;;;5.11;84.36
12471;BME280;36499;46.484;13.832;2022-12-10T10:16:30;91530.38;;;5.16;83.60
12471;BME280;36499;46.484;13.832;2022-12-10T10:19:05;91528.00;;;5.15;83.39
12471;BME280;36499;46.484;13.832;2022-12-10T10:21:38;91521.06;;;5.15;84.12
12471;BME280;36499;46.484;13.832;2022-12-10T10:24:12;91520.72;;;5.12;83.23
12471;BME280;36499;46.484;13.832;2022-12-10T10:26:43;91513.97;;;5.11;83.38
12471;BME280;36499;46.484;13.832;2022-12-10T10:29:14;91511.50;;;5.16;83.93
12471;BME280;36499;46.484;13.832;2022-12-10T10:31:45;91512.31;;;5.16;83.39
12471;BME280;36499;46.484;13.832;2022-12-10T10:34:21;91513.91;;;5.17;83.93
12471;BME280;36499;46.484;13.832;2022-12-10T10:36:57;91508.84;;;5.22;83.80
12471;BME280;36499;46.484;13.832;2022-12-10T10:39:29;91501.44;;;5.26;83.81
12471;BME280;36499;46.484;13.832;2022-12-10T10:42:08;91507.41;;;5.26;83.00
12471;BME280;36499;46.484;13.832;2022-12-10T10:44:38;91510.78;;;5.27;83.19
12471;BME280;36499;46.484;13.832;2022-12-10T10:47:29;91507.41;;;5.26;83.02
12471;BME280;36499;46.484;13.832;2022-12-10T10:49:57;91507.63;;;5.25;83.06
12471;BME280;36499;46.484;13.832;2022-12-10T10:52:29;91507.97;;;5.28;83.39
12471;BME280;36499;46.484;13.832;2022-12-10T10:54:57;91504.59;;;5.28;83.73
12471;BME280;36499;46.484;13.832;2022-12-10T10:57:34;91507.69;;;5.18;83.17
12471;BME280;36499;46.484;13.832;2022-12-10T11:00:16;91507.69;;;5.18;83.21
12471;BME280;36499;46.484;13.832;2022-12-10T11:02:46;91503.78;;;5.16;83.02
12471;BME280;36499;46.484;13.832;2022-12-10T11:05:22;91492.59;;;5.04;83.04
12471;BME280;36499;46.484;13.832;2022-12-10T11:08:16;91495.78;;;5.06;83.61
12471;BME280;36499;46.484;13.832;2022-12-10T11:10:58;91487.56;;;5.09;82.98
12471;BME280;36499;46.484;13.832;2022-12-10T11:13:33;91488.03;;;5.06;83.19
12471;BME280;36499;46.484;13.832;2022-12-10T11:16:16;91492.59;;;5.04;83.38
12471;BME280;36499;46.484;13.832;2022-12-10T11:18:55;91493.75;;;5.08;83.80
12471;BME280;36499;46.484;13.832;2022-12-10T11:21:30;91494.44;;;5.15;83.25
12471;BME280;36499;46.484;13.832;2022-12-10T11:23:59;91494.88;;;5.12;82.63
12471;BME280;36499;46.484;13.832;2022-12-10T11:26:56;91488.78;;;5.06;82.75
12471;BME280;36499;46.484;13.832;2022-12-10T11:29:46;91492.41;;;5.05;82.86
12471;BME280;36499;46.484;13.832;2022-12-10T11:32:34;91496.53;;;5.06;82.53
12471;BME280;36499;46.484;13.832;2022-12-10T11:35:12;91487.72;;;4.96;83.33
12471;BME280;36499;46.484;13.832;2022-12-10T11:37:54;91486.19;;;4.76;84.29
12471;BME280;36499;46.484;13.832;2022-12-10T11:40:38;91476.25;;;4.92;83.38
12471;BME280;36499;46.484;13.832;2022-12-10T11:46:45;91477.31;;;5.02;83.21
12471;BME280;36499;46.484;13.832;2022-12-10T11:49:29;91464.19;;;5.04;83.29
12471;BME280;36499;46.484;13.832;2022-12-10T11:52:13;91467.66;;;4.98;83.08
12471;BME280;36499;46.484;13.832;2022-12-10T11:55:01;91460.56;;;4.93;83.49
12471;BME280;36499;46.484;13.832;2022-12-10T11:57:41;91458.47;;;5.02;82.87
12471;BME280;36499;46.484;13.832;2022-12-10T12:00:21;91454.13;;;4.84;83.58
12471;BME280;36499;46.484;13.832;2022-12-10T12:06:35;91444.53;;;4.73;84.16
12471;BME280;36499;46.484;13.832;2022-12-10T12:09:18;91441.34;;;4.89;83.51
12471;BME280;36499;46.484;13.832;2022-12-10T12:12:10;91438.34;;;4.92;83.49
12471;BME280;36499;46.484;13.832;2022-12-10T12:14:48;91436.75;;;4.91;83.29
12471;BME280;36499;46.484;13.832;2022-12-10T12:17:26;91428.88;;;4.86;83.51
12471;BME280;36499;46.484;13.832;2022-12-10T12:20:12;91432.56;;;4.78;84.16
12471;BME280;36499;46.484;13.832;2022-12-10T12:22:51;91430.09;;;4.83;83.55
12471;BME280;36499;46.484;13.832;2022-12-10T12:25:27;91437.16;;;4.76;83.74
12471;BME280;36499;46.484;13.832;2022-12-10T12:28:06;91435.09;;;4.67;83.79
12471;BME280;36499;46.484;13.832;2022-12-10T12:30:41;91440.34;;;4.60;84.49
12471;BME280;36499;46.484;13.832;2022-12-10T12:33:19;91438.97;;;4.58;85.03
12471;BME280;36499;46.484;13.832;2022-12-10T12:36:02;91432.03;;;4.58;84.20
12471;BME280;36499;46.484;13.832;2022-12-10T12:38:45;91426.44;;;4.43;85.04
12471;BME280;36499;46.484;13.832;2022-12-10T12:41:21;91433.78;;;4.28;86.37
12471;BME280;36499;46.484;13.832;2022-12-10T12:43:58;91427.44;;;4.42;85.37
12471;BME280;36499;46.484;13.832;2022-12-10T12:46:37;91428.53;;;4.53;85.72
12471;BME280;36499;46.484;13.832;2022-12-10T12:49:18;91427.72;;;4.70;84.35
12471;BME280;36499;46.484;13.832;2022-12-10T12:51:54;91428.84;;;4.74;84.04
12471;BME280;36499;46.484;13.832;2022-12-10T12:54:23;91429.97;;;4.78;83.41
12471;BME280;36499;46.484;13.832;2022-12-10T12:57:03;91428.84;;;4.74;84.00
12471;BME280;36499;46.484;13.832;2022-12-10T12:59:49;91429.50;;;4.70;83.79
12471;BME280;36499;46.484;13.832;2022-12-10T13:02:45;91419.97;;;4.70;83.95
12471;BME280;36499;46.484;13.832;2022-12-10T13:05:20;91431.13;;;4.64;84.03
12471;BME280;36499;46.484;13.832;2022-12-10T13:08:32;91426.81;;;4.47;84.77
12471;BME280;36499;46.484;13.832;2022-12-10T13:11:29;91421.50;;;4.60;84.94
12471;BME280;36499;46.484;13.832;2022-12-10T13:14:32;91418.16;;;4.41;85.59
12471;BME280;36499;46.484;13.832;2022-12-10T13:17:27;91422.84;;;4.62;84.62
12471;BME280;36499;46.484;13.832;2022-12-10T13:20:35;91421.69;;;4.58;85.21
12471;BME280;36499;46.484;13.832;2022-12-10T13:23:27;91421.09;;;4.45;84.87
12471;BME280;36499;46.484;13.832;2022-12-10T13:26:01;91424.75;;;4.37;85.67
12471;BME280;36499;46.484;13.832;2022-12-10T13:28:48;91418.06;;;4.48;85.26
12471;BME280;36499;46.484;13.832;2022-12-10T13:31:36;91423.13;;;4.54;84.70
12471;BME280;36499;46.484;13.832;2022-12-10T13:34:30;91428.16;;;4.49;84.73
12471;BME280;36499;46.484;13.832;2022-12-10T13:37:29;91427.88;;;4.39;85.02